sensor_id;sensor_type;location;lat;lon;timestamp;pressure;altitude;pressure_sealevel;temperature;humidity
15405;BME280;7801;48.124;11.590;2022-10-12T00:00:57;96047.78;;;13.71;100.00
15405;BME280;7801;48.124;11.590;2022-10-12T00:03:24;96051.41;;;13.75;100.00
15405;BME280;7801;48.124;11.590;2022-10-12T00:06:14;96041.75;;;13.66;100.00
15405;BME280;7801;48.124;11.590;2022-10-12T00:08:42;96036.63;;;13.69;100.00
15405;BME280;7801;48.124;11.590;2022-10-12T00:11:17;96044.13;;;13.67;100.00
15405;BME280;7801;48.124;11.590;2022-10-12T00:13:44;96043.13;;;13.63;100.00
15405;BME280;7801;48.124;11.590;2022-10-12T00:16:14;96038.59;;;13.64;100.00
15405;BME280;7801;48.124;11.590;2022-10-12T00:18:41;96036.78;;;13.59;100.00
15405;BME280;7801;48.124;11.590;2022-10-12T00:21:14;96039.97;;;13.61;100.00
15405;BME280;7801;48.124;11.590;2022-10-12T00:23:43;96035.72;;;13.60;100.00
15405;BME280;7801;48.124;11.590;2022-10-12T00:26:20;96044.09;;;13.54;100.00
15405;BME280;7801;48.124;11.590;2022-10-12T00:28:53;96037.97;;;13.53;100.00
15405;BME280;7801;48.124;11.590;2022-10-12T00:31:22;96026.91;;;13.46;100.00
15405;BME280;7801;48.124;11.590;2022-10-12T00:33:49;96037.06;;;13.44;100.00
15405;BME280;7801;48.124;11.590;2022-10-12T00:36:23;96036.56;;;13.42;100.00
15405;BME280;7801;48.124;11.590;2022-10-12T00:38:53;96035.00;;;13.41;100.00
15405;BME280;7801;48.124;11.590;2022-10-12T00:41:24;96036.28;;;13.57;100.00
15405;BME280;7801;48.124;11.590;2022-10-12T00:43:51;96038.37;;;13.60;100.00
15405;BME280;7801;48.124;11.590;2022-10-12T00:46:40;96028.72;;;13.64;100.00
15405;BME280;7801;48.124;11.590;2022-10-12T00:49:16;96030.09;;;13.62;100.00
15405;BME280;7801;48.124;11.590;2022-10-12T00:51:49;96034.41;;;13.58;100.00
15405;BME280;7801;48.124;11.590;2022-10-12T00:54:26;96036.00;;;13.45;100.00
15405;BME280;7801;48.124;11.590;2022-10-12T00:57:01;96037.06;;;13.44;100.00
15405;BME280;7801;48.124;11.590;2022-10-12T00:59:31;96042.03;;;13.64;100.00
15405;BME280;7801;48.124;11.590;2022-10-12T01:02:03;96035.44;;;13.75;99.89
15405;BME280;7801;48.124;11.590;2022-10-12T01:04:30;96033.66;;;13.71;99.59
15405;BME280;7801;48.124;11.590;2022-10-12T01:06:58;96039.19;;;13.88;98.81
15405;BME280;7801;48.124;11.590;2022-10-12T01:09:25;96038.13;;;13.89;98.45
15405;BME280;7801;48.124;11.590;2022-10-12T01:11:53;96042.66;;;13.89;98.37
15405;BME280;7801;48.124;11.590;2022-10-12T01:14:20;96034.75;;;13.84;98.57
15405;BME280;7801;48.124;11.590;2022-10-12T01:16:52;96033.66;;;13.85;98.50
15405;BME280;7801;48.124;11.590;2022-10-12T01:22:13;96034.16;;;13.87;98.14
15405;BME280;7801;48.124;11.590;2022-10-12T01:25:34;96039.78;;;13.99;97.39
15405;BME280;7801;48.124;11.590;2022-10-12T01:28:40;96033.66;;;13.85;97.52
15405;BME280;7801;48.124;11.590;2022-10-12T01:31:27;96035.91;;;13.77;98.09
15405;BME280;7801;48.124;11.590;2022-10-12T01:34:12;96040.88;;;13.84;98.19
15405;BME280;7801;48.124;11.590;2022-10-12T01:36:46;96033.47;;;13.81;98.22
15405;BME280;7801;48.124;11.590;2022-10-12T01:41:49;96032.97;;;13.65;99.25
15405;BME280;7801;48.124;11.590;2022-10-12T01:44:22;96039.00;;;13.85;98.96
15405;BME280;7801;48.124;11.590;2022-10-12T01:46:49;96038.78;;;13.81;99.14
15405;BME280;7801;48.124;11.590;2022-10-12T01:49:27;96034.53;;;13.80;99.24
15405;BME280;7801;48.124;11.590;2022-10-12T01:52:24;96039.28;;;13.83;99.40
15405;BME280;7801;48.124;11.590;2022-10-12T02:00:26;96036.41;;;13.80;99.45
15405;BME280;7801;48.124;11.590;2022-10-12T02:03:18;96039.19;;;13.88;99.19
15405;BME280;7801;48.124;11.590;2022-10-12T02:06:08;96034.94;;;13.73;100.00
15405;BME280;7801;48.124;11.590;2022-10-12T02:09:02;96040.25;;;13.73;100.00
15405;BME280;7801;48.124;11.590;2022-10-12T02:11:33;96036.03;;;13.86;99.93
15405;BME280;7801;48.124;11.590;2022-10-12T02:14:16;96027.44;;;13.89;100.00
15405;BME280;7801;48.124;11.590;2022-10-12T02:16:55;96033.25;;;13.77;100.00
15405;BME280;7801;48.124;11.590;2022-10-12T02:19:30;96024.66;;;13.81;100.00
15405;BME280;7801;48.124;11.590;2022-10-12T02:22:01;96026.44;;;13.99;99.87
15405;BME280;7801;48.124;11.590;2022-10-12T02:24:29;96025.84;;;14.02;99.55
15405;BME280;7801;48.124;11.590;2022-10-12T02:26:55;96024.38;;;14.09;99.28
15405;BME280;7801;48.124;11.590;2022-10-12T02:29:29;96023.78;;;13.99;99.72
15405;BME280;7801;48.124;11.590;2022-10-12T02:37:55;96022.41;;;14.01;99.91
15405;BME280;7801;48.124;11.590;2022-10-12T02:40:45;96028.63;;;13.97;100.00
15405;BME280;7801;48.124;11.590;2022-10-12T02:46:11;96025.06;;;14.01;100.00
15405;BME280;7801;48.124;11.590;2022-10-12T02:48:41;96017.44;;;13.95;100.00
15405;BME280;7801;48.124;11.590;2022-10-12T02:51:09;96017.88;;;13.88;100.00
15405;BME280;7801;48.124;11.590;2022-10-12T02:53:35;96013.31;;;13.89;100.00
15405;BME280;7801;48.124;11.590;2022-10-12T02:56:05;96016.38;;;13.82;100.00
15405;BME280;7801;48.124;11.590;2022-10-12T02:58:32;96012.13;;;13.95;100.00
15405;BME280;7801;48.124;11.590;2022-10-12T03:00:58;96011.53;;;13.84;100.00
15405;BME280;7801;48.124;11.590;2022-10-12T03:03:25;96009.66;;;13.98;100.00
15405;BME280;7801;48.124;11.590;2022-10-12T03:05:51;96007.19;;;13.88;100.00
15405;BME280;7801;48.124;11.590;2022-10-12T03:08:19;96005.13;;;13.85;100.00
15405;BME280;7801;48.124;11.590;2022-10-12T03:10:46;96000.84;;;13.98;100.00
15405;BME280;7801;48.124;11.590;2022-10-12T03:13:13;96011.16;;;13.91;100.00
15405;BME280;7801;48.124;11.590;2022-10-12T03:15:38;96008.75;;;14.03;100.00
15405;BME280;7801;48.124;11.590;2022-10-12T03:18:05;96009.56;;;13.90;100.00
15405;BME280;7801;48.124;11.590;2022-10-12T03:20:30;96005.09;;;13.99;100.00
15405;BME280;7801;48.124;11.590;2022-10-12T03:22:57;96007.59;;;13.82;100.00
15405;BME280;7801;48.124;11.590;2022-10-12T03:25:26;96006.59;;;13.77;100.00
15405;BME280;7801;48.124;11.590;2022-10-12T03:27:53;96004.41;;;13.80;100.00
15405;BME280;7801;48.124;11.590;2022-10-12T03:30:20;96009.88;;;13.88;100.00
15405;BME280;7801;48.124;11.590;2022-10-12T03:32:46;96004.91;;;13.95;100.00
15405;BME280;7801;48.124;11.590;2022-10-12T03:35:13;96004.03;;;13.86;100.00
15405;BME280;7801;48.124;11.590;2022-10-12T03:37:40;96004.59;;;13.97;100.00
15405;BME280;7801;48.124;11.590;2022-10-12T03:40:07;96006.19;;;13.98;100.00
15405;BME280;7801;48.124;11.590;2022-10-12T03:42:33;96006.91;;;13.90;100.00
15405;BME280;7801;48.124;11.590;2022-10-12T03:45:00;96008.56;;;13.86;100.00
15405;BME280;7801;48.124;11.590;2022-10-12T03:47:26;96001.66;;;13.85;100.00
15405;BME280;7801;48.124;11.590;2022-10-12T03:49:53;96010.34;;;13.76;100.00
15405;BME280;7801;48.124;11.590;2022-10-12T03:52:20;96007.59;;;13.82;100.00
15405;BME280;7801;48.124;11.590;2022-10-12T03:54:47;96011.53;;;13.84;100.00
15405;BME280;7801;48.124;11.590;2022-10-12T03:57:14;96014.69;;;13.72;100.00
15405;BME280;7801;48.124;11.590;2022-10-12T03:59:41;96014.00;;;13.81;100.00
15405;BME280;7801;48.124;11.590;2022-10-12T04:02:07;96013.72;;;13.82;100.00
15405;BME280;7801;48.124;11.590;2022-10-12T04:04:34;96020.00;;;13.72;100.00
15405;BME280;7801;48.124;11.590;2022-10-12T04:07:00;96014.00;;;13.81;100.00
15405;BME280;7801;48.124;11.590;2022-10-12T04:09:27;96006.69;;;13.86;100.00
15405;BME280;7801;48.124;11.590;2022-10-12T04:11:53;96018.06;;;13.92;100.00
15405;BME280;7801;48.124;11.590;2022-10-12T04:14:21;96022.00;;;13.94;100.00
15405;BME280;7801;48.124;11.590;2022-10-12T04:16:47;96013.91;;;13.99;100.00
15405;BME280;7801;48.124;11.590;2022-10-12T04:19:13;96013.78;;;13.77;100.00
15405;BME280;7801;48.124;11.590;2022-10-12T04:21:39;96013.78;;;13.77;100.00
15405;BME280;7801;48.124;11.590;2022-10-12T04:24:09;96010.34;;;13.76;100.00
15405;BME280;7801;48.124;11.590;2022-10-12T04:26:36;96012.41;;;13.80;100.00
15405;BME280;7801;48.124;11.590;2022-10-12T04:29:01;96017.97;;;13.69;100.00
15405;BME280;7801;48.124;11.590;2022-10-12T04:31:27;96005.22;;;13.66;100.00
15405;BME280;7801;48.124;11.590;2022-10-12T04:33:55;96018.62;;;13.61;100.00
15405;BME280;7801;48.124;11.590;2022-10-12T04:36:22;96020.78;;;13.46;100.00
15405;BME280;7801;48.124;11.590;2022-10-12T04:38:48;96025.25;;;13.64;100.00
15405;BME280;7801;48.124;11.590;2022-10-12T04:41:15;96023.88;;;13.66;100.00
15405;BME280;7801;48.124;11.590;2022-10-12T04:43:42;96026.12;;;13.59;100.00
15405;BME280;7801;48.124;11.590;2022-10-12T04:46:08;96024.25;;;13.73;100.00
15405;BME280;7801;48.124;11.590;2022-10-12T04:48:35;96020.63;;;13.69;100.00
15405;BME280;7801;48.124;11.590;2022-10-12T04:51:04;96024.25;;;13.73;100.00
15405;BME280;7801;48.124;11.590;2022-10-12T04:53:31;96025.16;;;13.83;100.00
15405;BME280;7801;48.124;11.590;2022-10-12T04:56:01;96025.75;;;13.80;100.00
15405;BME280;7801;48.124;11.590;2022-10-12T04:58:29;96021.22;;;13.66;100.00
15405;BME280;7801;48.124;11.590;2022-10-12T05:00:56;96025.47;;;13.81;100.00
15405;BME280;7801;48.124;11.590;2022-10-12T05:03:26;96025.06;;;13.88;100.00
15405;BME280;7801;48.124;11.590;2022-10-12T05:05:52;96022.13;;;13.89;100.00
15405;BME280;7801;48.124;11.590;2022-10-12T05:08:19;96020.41;;;13.80;100.00
15405;BME280;7801;48.124;11.590;2022-10-12T05:10:45;96019.91;;;13.77;100.00
15405;BME280;7801;48.124;11.590;2022-10-12T05:13:15;96026.44;;;13.85;100.00
15405;BME280;7801;48.124;11.590;2022-10-12T05:15:44;96019.62;;;13.79;100.00
15405;BME280;7801;48.124;11.590;2022-10-12T05:18:11;96023.00;;;13.85;100.00
15405;BME280;7801;48.124;11.590;2022-10-12T05:20:38;96026.53;;;13.94;100.00
15405;BME280;7801;48.124;11.590;2022-10-12T05:23:05;96023.78;;;13.99;100.00
15405;BME280;7801;48.124;11.590;2022-10-12T05:25:31;96025.75;;;14.07;100.00
15405;BME280;7801;48.124;11.590;2022-10-12T05:28:04;96026.25;;;14.09;100.00
15405;BME280;7801;48.124;11.590;2022-10-12T05:30:35;96031.47;;;14.14;100.00
15405;BME280;7801;48.124;11.590;2022-10-12T05:33:01;96026.12;;;14.14;100.00
15405;BME280;7801;48.124;11.590;2022-10-12T05:35:27;96030.09;;;14.17;100.00
15405;BME280;7801;48.124;11.590;2022-10-12T05:37:52;96027.53;;;13.98;100.00
15405;BME280;7801;48.124;11.590;2022-10-12T05:40:18;96030.69;;;14.00;100.00
15405;BME280;7801;48.124;11.590;2022-10-12T05:42:45;96025.44;;;13.95;100.00
15405;BME280;7801;48.124;11.590;2022-10-12T05:45:12;96025.56;;;13.90;100.00
15405;BME280;7801;48.124;11.590;2022-10-12T05:47:40;96028.72;;;13.78;100.00
15405;BME280;7801;48.124;11.590;2022-10-12T05:50:07;96030.00;;;13.94;100.00
15405;BME280;7801;48.124;11.590;2022-10-12T05:52:34;96031.78;;;13.99;100.00
15405;BME280;7801;48.124;11.590;2022-10-12T05:55:00;96035.75;;;13.88;100.00
15405;BME280;7801;48.124;11.590;2022-10-12T05:57:26;96041.56;;;13.90;100.00
15405;BME280;7801;48.124;11.590;2022-10-12T05:59:53;96039.00;;;13.98;100.00
15405;BME280;7801;48.124;11.590;2022-10-12T06:02:20;96049.16;;;13.96;100.00
15405;BME280;7801;48.124;11.590;2022-10-12T06:04:50;96050.44;;;13.99;100.00
15405;BME280;7801;48.124;11.590;2022-10-12T06:07:17;96054.19;;;13.98;100.00
15405;BME280;7801;48.124;11.590;2022-10-12T06:09:46;96053.03;;;14.04;100.00
15405;BME280;7801;48.124;11.590;2022-10-12T06:12:13;96055.78;;;13.99;100.00
15405;BME280;7801;48.124;11.590;2022-10-12T06:14:42;96047.28;;;13.97;100.00
15405;BME280;7801;48.124;11.590;2022-10-12T06:17:11;96054.72;;;13.86;100.00
15405;BME280;7801;48.124;11.590;2022-10-12T06:19:38;96057.97;;;13.83;100.00
15405;BME280;7801;48.124;11.590;2022-10-12T06:22:06;96060.13;;;13.81;100.00
15405;BME280;7801;48.124;11.590;2022-10-12T06:24:34;96047.16;;;13.74;100.00
15405;BME280;7801;48.124;11.590;2022-10-12T06:27:01;96053.22;;;13.80;100.00
15405;BME280;7801;48.124;11.590;2022-10-12T06:29:26;96046.50;;;13.69;100.00
15405;BME280;7801;48.124;11.590;2022-10-12T06:31:53;96054.28;;;13.65;100.00
15405;BME280;7801;48.124;11.590;2022-10-12T06:34:20;96061.34;;;13.89;100.00
15405;BME280;7801;48.124;11.590;2022-10-12T06:36:49;96047.78;;;13.99;100.00
15405;BME280;7801;48.124;11.590;2022-10-12T06:39:15;96061.41;;;13.97;100.00
15405;BME280;7801;48.124;11.590;2022-10-12T06:41:41;96061.53;;;13.92;100.00
15405;BME280;7801;48.124;11.590;2022-10-12T06:44:06;96066.66;;;13.89;100.00
15405;BME280;7801;48.124;11.590;2022-10-12T06:46:36;96069.22;;;13.94;100.00
15405;BME280;7801;48.124;11.590;2022-10-12T06:49:03;96058.97;;;13.87;100.00
15405;BME280;7801;48.124;11.590;2022-10-12T06:51:33;96063.28;;;13.83;100.00
15405;BME280;7801;48.124;11.590;2022-10-12T06:54:01;96066.06;;;13.78;100.00
15405;BME280;7801;48.124;11.590;2022-10-12T06:56:28;96064.47;;;13.77;100.00
15405;BME280;7801;48.124;11.590;2022-10-12T06:58:56;96072.97;;;13.65;100.00
15405;BME280;7801;48.124;11.590;2022-10-12T07:01:23;96067.94;;;13.77;100.00
15405;BME280;7801;48.124;11.590;2022-10-12T07:03:50;96067.75;;;14.01;100.00
15405;BME280;7801;48.124;11.590;2022-10-12T07:06:17;96068.03;;;14.27;100.00
15405;BME280;7801;48.124;11.590;2022-10-12T07:08:42;96073.16;;;14.37;100.00
15405;BME280;7801;48.124;11.590;2022-10-12T07:11:10;96067.44;;;14.58;100.00
15405;BME280;7801;48.124;11.590;2022-10-12T07:13:41;96069.16;;;14.76;100.00
15405;BME280;7801;48.124;11.590;2022-10-12T07:16:11;96069.81;;;14.59;98.88
15405;BME280;7801;48.124;11.590;2022-10-12T07:18:37;96070.84;;;14.86;99.33
15405;BME280;7801;48.124;11.590;2022-10-12T07:21:05;96070.22;;;14.89;99.09
15405;BME280;7801;48.124;11.590;2022-10-12T07:23:33;96071.22;;;14.79;97.60
15405;BME280;7801;48.124;11.590;2022-10-12T07:26:04;96072.94;;;14.75;97.46
15405;BME280;7801;48.124;11.590;2022-10-12T07:28:41;96076.41;;;14.75;97.65
15405;BME280;7801;48.124;11.590;2022-10-12T07:31:08;96071.72;;;14.95;97.01
15405;BME280;7801;48.124;11.590;2022-10-12T07:33:40;96067.75;;;15.90;100.00
15405;BME280;7801;48.124;11.590;2022-10-12T07:36:06;96079.19;;;16.13;99.61
15405;BME280;7801;48.124;11.590;2022-10-12T07:38:34;96087.94;;;16.44;97.75
15405;BME280;7801;48.124;11.590;2022-10-12T07:41:03;96088.00;;;16.62;94.90
15405;BME280;7801;48.124;11.590;2022-10-12T07:43:36;96090.91;;;16.91;92.56
15405;BME280;7801;48.124;11.590;2022-10-12T07:46:05;96089.50;;;17.02;91.26
15405;BME280;7801;48.124;11.590;2022-10-12T07:48:33;96091.06;;;17.03;88.14
15405;BME280;7801;48.124;11.590;2022-10-12T07:51:08;96089.50;;;17.20;87.76
15405;BME280;7801;48.124;11.590;2022-10-12T07:53:37;96096.22;;;17.51;86.31
15405;BME280;7801;48.124;11.590;2022-10-12T07:56:06;96091.50;;;17.74;84.92
15405;BME280;7801;48.124;11.590;2022-10-12T07:58:32;96093.84;;;17.84;83.37
15405;BME280;7801;48.124;11.590;2022-10-12T08:01:08;96096.72;;;18.17;82.25
15405;BME280;7801;48.124;11.590;2022-10-12T08:03:36;96102.53;;;18.28;82.18
15405;BME280;7801;48.124;11.590;2022-10-12T08:06:14;96102.00;;;18.35;81.43
15405;BME280;7801;48.124;11.590;2022-10-12T08:08:42;96101.53;;;18.41;80.57
15405;BME280;7801;48.124;11.590;2022-10-12T08:11:10;96092.63;;;18.49;80.06
15405;BME280;7801;48.124;11.590;2022-10-12T08:13:37;96092.59;;;18.29;78.98
15405;BME280;7801;48.124;11.590;2022-10-12T08:16:08;96100.66;;;17.47;80.10
15405;BME280;7801;48.124;11.590;2022-10-12T08:18:38;96095.66;;;17.03;82.25
15405;BME280;7801;48.124;11.590;2022-10-12T08:21:05;96099.75;;;16.43;84.88
15405;BME280;7801;48.124;11.590;2022-10-12T08:23:35;96099.56;;;16.31;85.54
15405;BME280;7801;48.124;11.590;2022-10-12T08:26:03;96105.53;;;15.89;87.08
15405;BME280;7801;48.124;11.590;2022-10-12T08:28:28;96100.47;;;15.34;89.87
15405;BME280;7801;48.124;11.590;2022-10-12T08:30:55;96098.50;;;15.26;90.37
15405;BME280;7801;48.124;11.590;2022-10-12T08:33:29;96100.69;;;15.24;90.10
15405;BME280;7801;48.124;11.590;2022-10-12T08:35:55;96099.00;;;15.28;90.29
15405;BME280;7801;48.124;11.590;2022-10-12T08:38:21;96104.56;;;14.95;90.68
15405;BME280;7801;48.124;11.590;2022-10-12T08:46:45;96106.75;;;14.79;92.48
15405;BME280;7801;48.124;11.590;2022-10-12T08:49:21;96100.78;;;14.96;91.32
15405;BME280;7801;48.124;11.590;2022-10-12T08:52:01;96103.09;;;14.89;91.54
15405;BME280;7801;48.124;11.590;2022-10-12T08:54:43;96103.78;;;14.81;91.68
15405;BME280;7801;48.124;11.590;2022-10-12T08:57:17;96108.91;;;14.91;91.77
15405;BME280;7801;48.124;11.590;2022-10-12T08:59:45;96107.81;;;14.92;91.52
15405;BME280;7801;48.124;11.590;2022-10-12T09:08:03;96115.75;;;15.20;90.54
15405;BME280;7801;48.124;11.590;2022-10-12T09:10:52;96118.06;;;15.12;90.51
15405;BME280;7801;48.124;11.590;2022-10-12T09:13:46;96116.47;;;15.11;91.01
15405;BME280;7801;48.124;11.590;2022-10-12T09:16:23;96114.50;;;15.03;90.80
15405;BME280;7801;48.124;11.590;2022-10-12T09:19:01;96113.22;;;15.01;90.82
15405;BME280;7801;48.124;11.590;2022-10-12T09:21:33;96108.31;;;14.94;91.08
15405;BME280;7801;48.124;11.590;2022-10-12T09:23:59;96108.56;;;15.06;91.06
15405;BME280;7801;48.124;11.590;2022-10-12T09:26:37;96114.78;;;15.16;90.64
15405;BME280;7801;48.124;11.590;2022-10-12T09:29:30;96112.47;;;15.23;90.46
15405;BME280;7801;48.124;11.590;2022-10-12T09:34:41;96119.84;;;15.17;90.42
15405;BME280;7801;48.124;11.590;2022-10-12T09:37:17;96119.44;;;15.10;90.87
15405;BME280;7801;48.124;11.590;2022-10-12T09:39:54;96124.19;;;15.13;90.78
15405;BME280;7801;48.124;11.590;2022-10-12T09:42:19;96116.38;;;15.17;90.69
15405;BME280;7801;48.124;11.590;2022-10-12T09:44:56;96114.31;;;15.13;90.54
15405;BME280;7801;48.124;11.590;2022-10-12T09:47:34;96119.09;;;15.25;90.59
15405;BME280;7801;48.124;11.590;2022-10-12T09:50:01;96122.50;;;15.17;90.40
15405;BME280;7801;48.124;11.590;2022-10-12T09:52:46;96116.03;;;14.96;91.10
15405;BME280;7801;48.124;11.590;2022-10-12T09:55:25;96109.06;;;15.08;91.25
15405;BME280;7801;48.124;11.590;2022-10-12T09:58:00;96109.56;;;15.10;90.67
15405;BME280;7801;48.124;11.590;2022-10-12T10:00:28;96111.66;;;15.00;91.11
15405;BME280;7801;48.124;11.590;2022-10-12T10:02:57;96103.34;;;15.24;90.39
15405;BME280;7801;48.124;11.590;2022-10-12T10:05:37;96106.41;;;15.31;89.39
15405;BME280;7801;48.124;11.590;2022-10-12T10:08:22;96110.78;;;15.27;89.75
15405;BME280;7801;48.124;11.590;2022-10-12T10:10:55;96115.63;;;15.25;89.26
15405;BME280;7801;48.124;11.590;2022-10-12T10:13:23;96110.84;;;15.35;89.43
15405;BME280;7801;48.124;11.590;2022-10-12T10:16:02;96109.09;;;15.31;89.07
15405;BME280;7801;48.124;11.590;2022-10-12T10:18:46;96108.59;;;15.29;88.53
15405;BME280;7801;48.124;11.590;2022-10-12T10:21:28;96100.50;;;15.20;89.38
15405;BME280;7801;48.124;11.590;2022-10-12T10:24:00;96111.66;;;15.36;89.14
15405;BME280;7801;48.124;11.590;2022-10-12T10:26:28;96106.00;;;15.37;88.49
15405;BME280;7801;48.124;11.590;2022-10-12T10:29:25;96110.66;;;15.54;88.05
15405;BME280;7801;48.124;11.590;2022-10-12T10:35:18;96110.66;;;15.54;87.25
15405;BME280;7801;48.124;11.590;2022-10-12T10:37:56;96109.28;;;15.57;86.79
15405;BME280;7801;48.124;11.590;2022-10-12T10:40:32;96110.84;;;15.35;87.29
15405;BME280;7801;48.124;11.590;2022-10-12T10:43:06;96103.16;;;15.42;87.12
15405;BME280;7801;48.124;11.590;2022-10-12T10:45:53;96103.97;;;15.43;87.08
15405;BME280;7801;48.124;11.590;2022-10-12T10:48:25;96102.75;;;15.49;86.55
15405;BME280;7801;48.124;11.590;2022-10-12T10:51:02;96098.28;;;15.58;86.80
15405;BME280;7801;48.124;11.590;2022-10-12T10:53:32;96096.94;;;15.69;85.38
15405;BME280;7801;48.124;11.590;2022-10-12T10:56:16;96097.06;;;15.64;84.71
15405;BME280;7801;48.124;11.590;2022-10-12T10:58:58;96094.03;;;15.57;84.92
15405;BME280;7801;48.124;11.590;2022-10-12T11:01:37;96094.38;;;15.64;84.57
15405;BME280;7801;48.124;11.590;2022-10-12T11:04:24;96099.13;;;15.67;84.95
15405;BME280;7801;48.124;11.590;2022-10-12T11:07:08;96096.19;;;15.77;85.31
15405;BME280;7801;48.124;11.590;2022-10-12T11:09:49;96092.88;;;15.80;85.03
15405;BME280;7801;48.124;11.590;2022-10-12T11:12:35;96088.28;;;15.72;85.57
15405;BME280;7801;48.124;11.590;2022-10-12T11:15:36;96085.00;;;15.53;86.47
15405;BME280;7801;48.124;11.590;2022-10-12T11:18:33;96080.56;;;15.48;86.60
15405;BME280;7801;48.124;11.590;2022-10-12T11:21:07;96085.91;;;15.48;86.79
15405;BME280;7801;48.124;11.590;2022-10-12T11:23:50;96083.25;;;15.48;86.53
15405;BME280;7801;48.124;11.590;2022-10-12T11:29:12;96082.25;;;15.58;86.56
15405;BME280;7801;48.124;11.590;2022-10-12T11:34:48;96082.56;;;15.57;86.05
15405;BME280;7801;48.124;11.590;2022-10-12T11:37:21;96070.13;;;15.61;85.71
15405;BME280;7801;48.124;11.590;2022-10-12T11:39:51;96064.62;;;15.57;86.35
15405;BME280;7801;48.124;11.590;2022-10-12T11:42:42;96065.50;;;15.75;85.18
15405;BME280;7801;48.124;11.590;2022-10-12T11:45:38;96057.72;;;15.65;85.94
15405;BME280;7801;48.124;11.590;2022-10-12T11:48:22;96066.84;;;15.64;85.30
15405;BME280;7801;48.124;11.590;2022-10-12T11:50:51;96068.59;;;15.68;85.07
15405;BME280;7801;48.124;11.590;2022-10-12T11:56:28;96059.47;;;15.69;85.78
15405;BME280;7801;48.124;11.590;2022-10-12T11:59:15;96058.75;;;15.86;85.09
15405;BME280;7801;48.124;11.590;2022-10-12T12:04:46;96057.66;;;15.78;86.12
15405;BME280;7801;48.124;11.590;2022-10-12T12:07:39;96064.56;;;15.79;85.74
15405;BME280;7801;48.124;11.590;2022-10-12T12:13:18;96053.63;;;15.59;86.32
15405;BME280;7801;48.124;11.590;2022-10-12T12:18:26;96048.06;;;15.55;86.53
15405;BME280;7801;48.124;11.590;2022-10-12T12:21:09;96046.47;;;15.54;87.07
15405;BME280;7801;48.124;11.590;2022-10-12T12:23:52;96045.75;;;15.62;86.93
15405;BME280;7801;48.124;11.590;2022-10-12T12:26:24;96042.94;;;15.67;86.09
15405;BME280;7801;48.124;11.590;2022-10-12T12:29:34;96044.53;;;15.68;86.30
15405;BME280;7801;48.124;11.590;2022-10-12T12:32:09;96048.59;;;15.66;86.19
15405;BME280;7801;48.124;11.590;2022-10-12T12:34:36;96044.41;;;15.73;86.30
15405;BME280;7801;48.124;11.590;2022-10-12T12:37:17;96040.03;;;15.55;86.02
15405;BME280;7801;48.124;11.590;2022-10-12T12:39:52;96046.53;;;15.63;86.15
15405;BME280;7801;48.124;11.590;2022-10-12T12:42:29;96048.16;;;15.72;86.26
15405;BME280;7801;48.124;11.590;2022-10-12T12:48:01;96047.19;;;15.68;86.24
15405;BME280;7801;48.124;11.590;2022-10-12T12:50:53;96042.63;;;15.69;86.49
15405;BME280;7801;48.124;11.590;2022-10-12T12:53:27;96045.63;;;15.67;85.94
15405;BME280;7801;48.124;11.590;2022-10-12T13:05:42;96057.09;;;15.68;85.33
15405;BME280;7801;48.124;11.590;2022-10-12T13:08:42;96045.63;;;15.67;84.89
15405;BME280;7801;48.124;11.590;2022-10-12T13:11:45;96046.84;;;15.61;85.56
15405;BME280;7801;48.124;11.590;2022-10-12T13:17:33;96046.47;;;15.54;86.13
15405;BME280;7801;48.124;11.590;2022-10-12T13:20:20;96040.34;;;15.54;86.22
15405;BME280;7801;48.124;11.590;2022-10-12T13:22:51;96040.53;;;15.57;86.56
15405;BME280;7801;48.124;11.590;2022-10-12T13:25:42;96044.31;;;15.56;86.78
15405;BME280;7801;48.124;11.590;2022-10-12T13:28:14;96045.09;;;15.57;86.61
15405;BME280;7801;48.124;11.590;2022-10-12T13:31:17;96046.22;;;15.64;86.12
15405;BME280;7801;48.124;11.590;2022-10-12T13:34:42;96037.09;;;15.65;85.89
15405;BME280;7801;48.124;11.590;2022-10-12T13:37:00;96039.03;;;15.73;85.62
15405;BME280;7801;48.124;11.590;2022-10-12T13:39:27;96038.75;;;15.75;85.25
15405;BME280;7801;48.124;11.590;2022-10-12T13:41:57;96039.53;;;15.75;84.95
15405;BME280;7801;48.124;11.590;2022-10-12T13:44:31;96029.59;;;16.24;94.07
15405;BME280;7801;48.124;11.590;2022-10-12T13:47:24;96033.91;;;16.34;88.07
15405;BME280;7801;48.124;11.590;2022-10-12T13:49:54;96031.44;;;16.72;89.98
15405;BME280;7801;48.124;11.590;2022-10-12T13:52:25;96019.78;;;17.02;87.31
15405;BME280;7801;48.124;11.590;2022-10-12T13:54:52;96024.06;;;17.03;84.20
15405;BME280;7801;48.124;11.590;2022-10-12T13:57:44;96022.13;;;17.21;81.74
15405;BME280;7801;48.124;11.590;2022-10-12T14:00:24;96024.47;;;17.31;81.24
15405;BME280;7801;48.124;11.590;2022-10-12T14:03:03;96030.03;;;17.09;79.15
15405;BME280;7801;48.124;11.590;2022-10-12T14:05:32;96025.13;;;16.59;80.67
15405;BME280;7801;48.124;11.590;2022-10-12T14:08:45;96024.44;;;16.36;82.05
15405;BME280;7801;48.124;11.590;2022-10-12T14:10:54;96020.34;;;16.30;82.33
15405;BME280;7801;48.124;11.590;2022-10-12T14:13:33;96017.00;;;16.16;83.37
15405;BME280;7801;48.124;11.590;2022-10-12T14:16:00;96016.53;;;16.14;83.25
15405;BME280;7801;48.124;11.590;2022-10-12T14:18:37;96009.25;;;16.06;83.19
15405;BME280;7801;48.124;11.590;2022-10-12T14:21:25;96017.28;;;16.06;83.82
15405;BME280;7801;48.124;11.590;2022-10-12T14:24:07;96017.09;;;15.94;84.12
15405;BME280;7801;48.124;11.590;2022-10-12T14:26:41;96016.31;;;15.93;84.51
15405;BME280;7801;48.124;11.590;2022-10-12T14:31:57;96017.72;;;15.91;85.42
15405;BME280;7801;48.124;11.590;2022-10-12T14:34:34;96020.22;;;15.87;85.07
15405;BME280;7801;48.124;11.590;2022-10-12T14:37:24;96020.34;;;15.82;85.43
15405;BME280;7801;48.124;11.590;2022-10-12T14:39:53;96016.88;;;15.81;84.85